createdAt,value
2019-05-01T00:01:38.309Z,7.50
2019-05-01T00:04:18.648Z,8.30
2019-05-01T00:06:52.389Z,9.23
2019-05-01T00:09:22.597Z,8.73
2019-05-01T00:11:52.795Z,9.17
2019-05-01T00:14:23.280Z,8.70
2019-05-01T00:16:54.916Z,13.53
2019-05-01T00:19:25.223Z,7.70
2019-05-01T00:21:55.547Z,12.13
2019-05-01T00:24:26.155Z,10.97
2019-05-01T00:26:56.606Z,10.43
2019-05-01T00:29:26.840Z,9.23
2019-05-01T00:31:57.288Z,9.13
2019-05-01T00:34:27.492Z,9.50
2019-05-01T00:36:57.739Z,12.60
2019-05-01T00:39:28.022Z,9.17
2019-05-01T00:41:59.656Z,12.40
2019-05-01T00:44:29.845Z,9.23
2019-05-01T00:47:00.636Z,9.43
2019-05-01T00:49:30.857Z,8.57
2019-05-01T00:52:01.228Z,12.53
2019-05-01T00:54:33.041Z,12.37
2019-05-01T00:57:11.047Z,9.70
2019-05-01T00:59:57.424Z,11.63
2019-05-01T01:02:39.979Z,15.13
2019-05-01T01:05:10.225Z,19.10
2019-05-01T01:07:40.197Z,19.13
2019-05-01T01:10:10.291Z,17.60
2019-05-01T01:12:40.785Z,18.80
2019-05-01T01:15:10.806Z,17.27
2019-05-01T01:17:41.571Z,14.67
2019-05-01T01:20:11.552Z,16.33
2019-05-01T01:22:41.692Z,14.47
2019-05-01T01:25:12.176Z,12.67
2019-05-01T01:27:42.245Z,9.87
2019-05-01T01:30:12.416Z,13.23
2019-05-01T01:32:42.979Z,13.33
2019-05-01T01:35:13.089Z,14.83
2019-05-01T01:37:43.116Z,15.43
2019-05-01T01:40:13.021Z,19.83
2019-05-01T01:42:44.309Z,20.73
2019-05-01T01:45:36.508Z,21.00
2019-05-01T01:48:17.080Z,17.87
2019-05-01T01:50:48.479Z,17.27
2019-05-01T01:53:21.368Z,16.90
2019-05-01T01:55:52.199Z,18.00
2019-05-01T01:58:23.668Z,15.67
2019-05-01T02:01:21.088Z,17.37
2019-05-01T02:03:55.430Z,15.93
2019-05-01T02:06:25.783Z,14.17
2019-05-01T02:08:56.935Z,14.10
2019-05-01T02:11:27.508Z,13.33
2019-05-01T02:13:58.196Z,11.73
2019-05-01T02:16:28.224Z,14.33
2019-05-01T02:18:58.233Z,12.07
2019-05-01T02:21:28.439Z,11.20
2019-05-01T02:23:58.711Z,13.17
2019-05-01T02:26:31.378Z,12.63
2019-05-01T02:29:26.894Z,16.37
2019-05-01T02:31:59.093Z,13.73
2019-05-01T02:34:30.122Z,13.70
2019-05-01T02:37:03.562Z,18.07
2019-05-01T02:39:35.165Z,17.43
2019-05-01T02:42:07.207Z,16.43
2019-05-01T02:44:41.977Z,15.53
2019-05-01T02:47:16.159Z,12.23
2019-05-01T02:50:09.796Z,16.87
2019-05-01T02:52:42.210Z,13.80
2019-05-01T02:55:37.556Z,12.87
2019-05-01T02:58:20.854Z,16.30
2019-05-01T03:00:51.095Z,16.57
2019-05-01T03:03:21.347Z,14.60
2019-05-01T03:05:51.543Z,13.63
2019-05-01T03:08:21.833Z,15.87
2019-05-01T03:10:52.214Z,14.57
2019-05-01T03:13:22.413Z,14.37
2019-05-01T03:15:52.717Z,13.60
2019-05-01T03:18:29.457Z,14.97
2019-05-01T03:21:17.107Z,15.03
2019-05-01T03:23:51.383Z,16.70
2019-05-01T03:26:22.102Z,14.97
2019-05-01T03:28:52.609Z,19.40
2019-05-01T03:31:23.249Z,15.43
2019-05-01T03:33:54.071Z,13.57
2019-05-01T03:36:25.061Z,14.53
2019-05-01T03:38:55.554Z,14.83
2019-05-01T03:41:26.329Z,20.20
2019-05-01T03:43:57.212Z,14.90
2019-05-01T03:46:28.846Z,15.33
2019-05-01T03:48:59.482Z,15.43
2019-05-01T03:51:29.936Z,14.13
2019-05-01T03:54:01.991Z,17.80
2019-05-01T03:56:32.608Z,14.93
2019-05-01T03:59:04.290Z,20.17
2019-05-01T04:01:44.880Z,17.23
2019-05-01T04:04:17.795Z,18.50
2019-05-01T04:06:48.881Z,18.63
2019-05-01T04:09:18.904Z,16.50
2019-05-01T04:11:49.282Z,15.77
2019-05-01T04:14:19.408Z,15.63
2019-05-01T04:17:08.310Z,20.73
2019-05-01T04:19:38.343Z,14.90
2019-05-01T04:22:12.343Z,15.77
2019-05-01T04:24:43.908Z,15.67
2019-05-01T04:27:20.422Z,13.60
2019-05-01T04:30:02.848Z,15.80
2019-05-01T04:32:50.929Z,15.90
2019-05-01T04:35:26.557Z,15.17
2019-05-01T04:37:58.860Z,12.60
2019-05-01T04:40:29.050Z,19.80
2019-05-01T04:42:59.434Z,18.80
2019-05-01T04:45:30.146Z,17.73
2019-05-01T04:48:02.345Z,25.43
2019-05-01T04:50:32.503Z,16.50
2019-05-01T04:53:02.676Z,16.97
2019-05-01T04:55:33.264Z,18.87
2019-05-01T04:58:03.389Z,15.97
2019-05-01T05:00:34.324Z,22.07
2019-05-01T05:03:12.444Z,16.00
2019-05-01T05:05:42.559Z,15.20
2019-05-01T05:08:12.771Z,16.23
2019-05-01T05:10:42.974Z,19.20
2019-05-01T05:13:19.703Z,15.50
2019-05-01T05:16:24.295Z,16.27
2019-05-01T05:19:01.151Z,16.33
2019-05-01T05:21:31.196Z,17.20
2019-05-01T05:24:01.375Z,14.13
2019-05-01T05:26:32.300Z,15.93
2019-05-01T05:29:02.826Z,15.50
2019-05-01T05:31:34.337Z,14.47
2019-05-01T05:34:07.831Z,15.77
2019-05-01T05:36:41.589Z,15.37
2019-05-01T05:39:22.867Z,14.73
2019-05-01T05:41:55.046Z,20.60
2019-05-01T05:44:26.300Z,18.83
2019-05-01T05:46:59.024Z,16.40
2019-05-01T05:49:29.603Z,17.43
2019-05-01T05:52:11.083Z,16.10
2019-05-01T05:55:13.967Z,16.93
2019-05-01T05:58:07.466Z,21.63
2019-05-01T06:01:01.911Z,16.13
2019-05-01T06:03:59.263Z,19.00
2019-05-01T06:06:49.473Z,15.40
2019-05-01T06:09:23.348Z,15.17
2019-05-01T06:12:05.008Z,17.80
2019-05-01T06:14:56.403Z,16.53
2019-05-01T06:17:35.286Z,15.83
2019-05-01T06:20:37.636Z,16.57
2019-05-01T06:23:15.765Z,19.70
2019-05-01T06:25:49.243Z,14.30
2019-05-01T06:28:24.624Z,15.60
2019-05-01T06:30:51.943Z,15.97
2019-05-01T06:33:22.108Z,17.50
2019-05-01T06:35:52.403Z,15.67
2019-05-01T06:38:22.707Z,17.77
2019-05-01T06:40:58.147Z,16.77
2019-05-01T06:43:51.137Z,16.63
2019-05-01T06:46:29.133Z,17.93
2019-05-01T06:49:11.561Z,21.97
2019-05-01T06:51:47.970Z,17.37
2019-05-01T06:54:19.236Z,20.60
2019-05-01T06:56:50.420Z,17.77
2019-05-01T06:59:21.346Z,16.07
2019-05-01T07:01:53.046Z,16.63
2019-05-01T07:04:24.645Z,18.37
2019-05-01T07:06:54.956Z,13.63
2019-05-01T07:09:28.000Z,16.73
2019-05-01T07:11:59.211Z,12.40
2019-05-01T07:14:30.177Z,13.77
2019-05-01T07:17:00.769Z,12.30
2019-05-01T07:20:11.795Z,15.73
2019-05-01T07:22:42.150Z,13.90
2019-05-01T07:25:12.874Z,14.43
2019-05-01T07:27:43.052Z,12.73
2019-05-01T07:30:26.078Z,16.23
2019-05-01T07:32:57.616Z,12.20
2019-05-01T07:35:27.906Z,12.30
2019-05-01T07:38:02.302Z,14.03
2019-05-01T07:40:30.220Z,12.40
2019-05-01T07:43:06.542Z,12.20
2019-05-01T07:45:58.700Z,13.37
2019-05-01T07:48:40.855Z,13.10
2019-05-01T07:51:08.923Z,13.53
2019-05-01T07:53:39.982Z,13.23
2019-05-01T07:56:10.609Z,11.13
2019-05-01T07:58:41.078Z,12.47
2019-05-01T08:01:33.880Z,12.43
2019-05-01T08:04:04.015Z,13.57
2019-05-01T08:06:34.043Z,11.83
2019-05-01T08:09:06.012Z,14.47
2019-05-01T08:11:39.174Z,13.27
2019-05-01T08:14:12.065Z,13.50
2019-05-01T08:16:42.557Z,11.70
2019-05-01T08:19:19.932Z,16.53
2019-05-01T08:22:17.896Z,13.67
2019-05-01T08:24:48.033Z,17.50
2019-05-01T08:27:37.813Z,16.50
2019-05-01T08:30:25.942Z,12.10
2019-05-01T08:33:14.771Z,11.10
2019-05-01T08:35:45.857Z,12.17
2019-05-01T08:38:16.484Z,11.53
2019-05-01T08:40:50.654Z,12.03
2019-05-01T08:43:19.498Z,11.37
2019-05-01T08:46:02.508Z,11.27
2019-05-01T08:48:54.844Z,12.23
2019-05-01T08:51:25.324Z,10.27
2019-05-01T08:53:57.770Z,11.60
2019-05-01T08:56:27.739Z,11.63
2019-05-01T08:58:58.199Z,9.93
2019-05-01T09:01:28.795Z,11.73
2019-05-01T09:04:11.671Z,11.30
2019-05-01T09:06:34.780Z,11.03
2019-05-01T09:09:02.879Z,10.73
2019-05-01T09:11:36.305Z,10.10
2019-05-01T09:14:06.225Z,12.37
2019-05-01T09:16:36.413Z,9.97
2019-05-01T09:19:06.604Z,10.97
2019-05-01T09:21:37.730Z,10.67
2019-05-01T09:24:09.024Z,10.20
2019-05-01T09:26:53.098Z,9.83
2019-05-01T09:29:28.545Z,10.50
2019-05-01T09:32:00.193Z,11.63
2019-05-01T09:34:30.995Z,10.90
2019-05-01T09:37:00.947Z,10.20
2019-05-01T09:39:31.980Z,12.67
2019-05-01T09:42:02.162Z,10.47
2019-05-01T09:44:32.319Z,11.20
2019-05-01T09:47:02.688Z,9.93
2019-05-01T09:49:32.837Z,12.07
2019-05-01T09:52:28.983Z,9.83
2019-05-01T09:55:08.529Z,9.03
2019-05-01T09:57:41.403Z,9.63
2019-05-01T10:00:15.223Z,9.57
2019-05-01T10:02:45.351Z,12.13
2019-05-01T10:05:28.418Z,10.00
2019-05-01T10:07:48.219Z,10.67
2019-05-01T10:10:18.804Z,10.57
2019-05-01T10:12:49.432Z,9.67
2019-05-01T10:15:19.955Z,9.57
2019-05-01T10:17:50.590Z,10.53
2019-05-01T10:20:20.937Z,10.67
2019-05-01T10:22:51.473Z,13.23
2019-05-01T10:25:21.971Z,10.20
2019-05-01T10:27:58.436Z,11.90
2019-05-01T10:30:45.408Z,10.23
2019-05-01T10:33:40.732Z,10.33
2019-05-01T10:36:20.488Z,10.57
2019-05-01T10:38:50.237Z,10.60
2019-05-01T10:41:20.313Z,11.20
2019-05-01T10:43:51.121Z,10.20
2019-05-01T10:46:21.878Z,12.17
2019-05-01T10:48:52.390Z,10.87
2019-05-01T10:51:24.222Z,10.60
2019-05-01T10:53:54.794Z,9.73
2019-05-01T10:56:25.020Z,9.47
2019-05-01T10:58:55.314Z,11.33
2019-05-01T11:01:32.911Z,10.57
2019-05-01T11:04:03.498Z,11.57
2019-05-01T11:06:33.817Z,10.50
2019-05-01T11:09:05.884Z,11.57
2019-05-01T11:11:36.316Z,11.17
2019-05-01T11:14:06.636Z,11.23
2019-05-01T11:16:36.906Z,10.80
2019-05-01T11:19:07.372Z,11.00
2019-05-01T11:21:37.776Z,12.97
2019-05-01T11:24:08.325Z,13.50
2019-05-01T11:26:39.536Z,11.47
2019-05-01T11:29:09.862Z,11.03
2019-05-01T11:31:59.228Z,10.83
2019-05-01T11:34:46.860Z,10.90
2019-05-01T11:37:42.069Z,11.97
2019-05-01T11:40:31.754Z,10.33
2019-05-01T11:43:02.776Z,12.27
2019-05-01T11:45:33.400Z,10.57
2019-05-01T11:48:03.772Z,9.47
2019-05-01T11:50:35.477Z,9.27
2019-05-01T11:53:06.992Z,11.03
2019-05-01T11:55:37.344Z,10.40
2019-05-01T11:58:07.856Z,9.07
2019-05-01T12:00:39.276Z,7.80
2019-05-01T12:03:11.585Z,10.50
2019-05-01T12:05:41.988Z,8.20
2019-05-01T12:08:12.252Z,9.00
2019-05-01T12:10:42.859Z,9.00
2019-05-01T12:13:13.916Z,11.47
2019-05-01T12:15:45.964Z,10.43
2019-05-01T12:18:16.240Z,10.20
2019-05-01T12:20:46.253Z,9.53
2019-05-01T12:23:16.431Z,10.93
2019-05-01T12:25:46.433Z,8.80
2019-05-01T12:28:16.484Z,9.87
2019-05-01T12:30:46.550Z,9.30
2019-05-01T12:33:16.740Z,10.60
2019-05-01T12:35:50.101Z,9.13
2019-05-01T12:38:20.157Z,8.67
2019-05-01T12:41:09.032Z,9.85
2019-05-01T12:43:40.181Z,8.40
2019-05-01T12:46:12.064Z,8.90
2019-05-01T12:48:42.088Z,7.03
2019-05-01T12:51:12.405Z,6.87
2019-05-01T12:54:01.364Z,7.65
2019-05-01T12:56:36.697Z,9.00
2019-05-01T12:59:06.694Z,8.80
2019-05-01T13:01:36.767Z,10.63
2019-05-01T13:04:06.833Z,7.50
2019-05-01T13:06:48.867Z,8.30
2019-05-01T13:09:09.367Z,8.85
2019-05-01T13:11:39.617Z,11.05
2019-05-01T13:14:09.625Z,9.33
2019-05-01T13:16:39.920Z,7.95
2019-05-01T13:19:10.032Z,6.62
2019-05-01T13:21:40.033Z,8.88
2019-05-01T13:24:10.148Z,9.08
2019-05-01T13:26:45.296Z,6.28
2019-05-01T13:29:26.541Z,9.25
2019-05-01T13:32:14.187Z,10.45
2019-05-01T13:34:44.420Z,7.87
2019-05-01T13:37:14.743Z,8.30
2019-05-01T13:39:44.828Z,5.87
2019-05-01T13:42:14.888Z,6.95
2019-05-01T13:44:44.933Z,8.23
2019-05-01T13:47:14.968Z,8.25
2019-05-01T13:49:45.172Z,5.17
2019-05-01T13:52:15.295Z,6.22
2019-05-01T13:54:45.392Z,4.30
2019-05-01T13:57:15.667Z,5.20
2019-05-01T13:59:45.854Z,6.83
2019-05-01T14:02:15.821Z,4.97
2019-05-01T14:04:46.281Z,5.47
2019-05-01T14:07:17.122Z,6.10
2019-05-01T14:09:47.984Z,6.72
2019-05-01T14:12:18.144Z,5.03
2019-05-01T14:14:48.164Z,4.67
2019-05-01T14:17:18.638Z,4.45
2019-05-01T14:19:57.827Z,6.08
2019-05-01T14:22:39.226Z,5.92
2019-05-01T14:25:10.433Z,6.08
2019-05-01T14:27:40.928Z,6.60
2019-05-01T14:30:11.496Z,5.55
2019-05-01T14:32:41.508Z,5.40
2019-05-01T14:35:12.284Z,6.15
2019-05-01T14:37:42.800Z,5.62
2019-05-01T14:40:13.010Z,4.60
2019-05-01T14:42:43.108Z,5.00
2019-05-01T14:45:13.464Z,5.75
2019-05-01T14:47:43.520Z,5.83
2019-05-01T14:50:13.663Z,5.42
2019-05-01T14:52:43.694Z,5.75
2019-05-01T14:55:13.816Z,6.60
2019-05-01T14:57:43.909Z,4.53
2019-05-01T15:00:14.837Z,6.83
2019-05-01T15:02:44.963Z,4.30
2019-05-01T15:05:15.201Z,5.00
2019-05-01T15:07:45.249Z,5.62
2019-05-01T15:10:15.682Z,6.53
2019-05-01T15:12:47.222Z,6.25
2019-05-01T15:15:45.401Z,6.45
2019-05-01T15:18:32.428Z,7.95
2019-05-01T15:21:02.488Z,7.67
2019-05-01T15:23:32.536Z,6.85
2019-05-01T15:26:02.752Z,5.85
2019-05-01T15:28:32.952Z,7.87
2019-05-01T15:31:03.044Z,6.57
2019-05-01T15:33:33.016Z,6.47
2019-05-01T15:36:03.197Z,6.20
2019-05-01T15:38:33.140Z,6.08
2019-05-01T15:41:12.114Z,6.33
2019-05-01T15:44:12.960Z,7.08
2019-05-01T15:46:43.043Z,4.95
2019-05-01T15:49:13.020Z,6.30
2019-05-01T15:51:43.076Z,6.42
2019-05-01T15:54:13.045Z,7.03
2019-05-01T15:56:43.127Z,5.20
2019-05-01T15:59:13.154Z,6.25
2019-05-01T16:01:43.277Z,4.90
2019-05-01T16:04:13.312Z,6.28
2019-05-01T16:06:43.636Z,4.92
2019-05-01T16:09:13.644Z,4.58
2019-05-01T16:12:09.359Z,5.00
2019-05-01T16:14:40.292Z,5.90
2019-05-01T16:17:10.617Z,5.57
2019-05-01T16:19:40.944Z,6.93
2019-05-01T16:22:11.150Z,5.03
2019-05-01T16:24:41.463Z,5.90
2019-05-01T16:27:11.913Z,5.27
2019-05-01T16:29:43.463Z,5.33
2019-05-01T16:32:13.795Z,5.97
2019-05-01T16:34:43.899Z,5.53
2019-05-01T16:37:15.238Z,5.83
2019-05-01T16:40:04.224Z,6.60
2019-05-01T16:42:43.972Z,9.10
2019-05-01T16:45:15.611Z,5.37
2019-05-01T16:47:46.180Z,5.10
2019-05-01T16:50:16.733Z,8.27
2019-05-01T16:52:47.176Z,6.17
2019-05-01T16:55:18.016Z,8.40
2019-05-01T16:57:48.572Z,5.03
2019-05-01T17:00:21.756Z,5.13
2019-05-01T17:03:09.144Z,6.20
2019-05-01T17:05:50.754Z,5.07
2019-05-01T17:08:46.287Z,5.60
2019-05-01T17:11:17.392Z,6.50
2019-05-01T17:13:47.660Z,4.10
2019-05-01T17:16:18.843Z,6.67
2019-05-01T17:18:49.336Z,6.73
2019-05-01T17:21:19.805Z,6.77
2019-05-01T17:23:50.560Z,12.37
2019-05-01T17:26:21.356Z,5.10
2019-05-01T17:28:51.770Z,4.93
2019-05-01T17:31:23.813Z,5.33
2019-05-01T17:33:55.641Z,5.63
2019-05-01T17:36:26.200Z,6.27
2019-05-01T17:38:56.662Z,8.87
2019-05-01T17:41:28.636Z,6.60
2019-05-01T17:43:59.314Z,5.40
2019-05-01T17:46:29.451Z,4.00
2019-05-01T17:49:04.210Z,6.07
2019-05-01T17:51:32.804Z,5.80
2019-05-01T17:54:03.235Z,5.90
2019-05-01T17:56:33.649Z,6.20
2019-05-01T17:59:04.084Z,4.13
2019-05-01T18:01:59.351Z,6.13
2019-05-01T18:04:48.393Z,5.33
2019-05-01T18:07:18.823Z,6.07
2019-05-01T18:09:51.454Z,5.00
2019-05-01T18:12:23.428Z,7.00
2019-05-01T18:14:53.451Z,4.87
2019-05-01T18:17:25.188Z,4.20
2019-05-01T18:19:55.321Z,7.10
2019-05-01T18:22:50.611Z,6.30
2019-05-01T18:25:34.890Z,5.90
2019-05-01T18:28:29.923Z,4.23
2019-05-01T18:30:58.853Z,7.93
2019-05-01T18:33:29.246Z,4.37
2019-05-01T18:36:10.769Z,8.50
2019-05-01T18:38:49.696Z,6.07
2019-05-01T18:41:25.647Z,4.57
2019-05-01T18:43:55.823Z,5.17
2019-05-01T18:46:29.016Z,6.73
2019-05-01T18:49:00.692Z,8.70
2019-05-01T18:51:30.972Z,4.90
2019-05-01T18:54:01.286Z,4.63
2019-05-01T18:56:31.328Z,5.70
2019-05-01T18:59:01.792Z,5.03
2019-05-01T19:01:34.940Z,6.10
2019-05-01T19:04:05.289Z,8.17
2019-05-01T19:06:41.262Z,11.70
2019-05-01T19:09:15.167Z,9.67
2019-05-01T19:11:41.447Z,9.93
2019-05-01T19:14:11.744Z,8.43
2019-05-01T19:16:45.344Z,8.20
2019-05-01T19:19:14.183Z,7.60
2019-05-01T19:21:46.437Z,11.23
2019-05-01T19:24:17.929Z,9.23
2019-05-01T19:26:48.211Z,9.10
2019-05-01T19:29:18.746Z,8.60
2019-05-01T19:31:50.081Z,7.97
2019-05-01T19:34:20.643Z,9.97
2019-05-01T19:36:51.600Z,8.60
2019-05-01T19:39:21.723Z,7.13
2019-05-01T19:41:54.469Z,5.60
2019-05-01T19:44:24.043Z,7.20
2019-05-01T19:46:54.729Z,5.80
2019-05-01T19:49:29.799Z,7.10
2019-05-01T19:52:00.748Z,5.57
2019-05-01T19:54:30.004Z,7.87
2019-05-01T19:57:02.327Z,5.30
2019-05-01T19:59:32.522Z,7.10
2019-05-01T20:02:03.544Z,6.53
2019-05-01T20:04:34.269Z,6.10
2019-05-01T20:07:04.340Z,7.17
2019-05-01T20:09:35.523Z,6.33
2019-05-01T20:12:06.442Z,6.97
2019-05-01T20:14:36.745Z,7.63
2019-05-01T20:17:09.998Z,6.47
2019-05-01T20:19:38.916Z,6.10
2019-05-01T20:22:09.484Z,5.53
2019-05-01T20:24:39.949Z,6.63
2019-05-01T20:27:11.932Z,7.27
2019-05-01T20:29:42.091Z,5.77
2019-05-01T20:32:12.316Z,7.97
2019-05-01T20:34:42.579Z,9.47
2019-05-01T20:37:12.757Z,11.40
2019-05-01T20:39:42.874Z,10.93
2019-05-01T20:42:13.188Z,6.70
2019-05-01T20:44:43.365Z,9.13
2019-05-01T20:47:13.686Z,10.03
2019-05-01T20:49:44.011Z,6.87
2019-05-01T20:52:14.113Z,12.83
2019-05-01T20:54:44.740Z,9.00
2019-05-01T20:57:25.304Z,8.30
2019-05-01T20:59:55.425Z,6.03
2019-05-01T21:02:25.751Z,7.77
2019-05-01T21:05:13.382Z,8.97
2019-05-01T21:08:21.120Z,8.23
2019-05-01T21:11:05.837Z,5.47
2019-05-01T21:13:36.667Z,8.57
2019-05-01T21:16:07.039Z,5.00
2019-05-01T21:18:37.248Z,6.60
2019-05-01T21:21:08.600Z,7.27
2019-05-01T21:23:39.081Z,6.20
2019-05-01T21:26:09.079Z,5.43
2019-05-01T21:28:41.941Z,5.80
2019-05-01T21:31:10.465Z,4.87
2019-05-01T21:33:40.783Z,6.47
2019-05-01T21:36:11.928Z,7.47
2019-05-01T21:38:42.684Z,9.40
2019-05-01T21:41:14.878Z,6.60
2019-05-01T21:43:44.690Z,6.73
2019-05-01T21:46:14.540Z,7.97
2019-05-01T21:48:44.460Z,9.23
2019-05-01T21:51:14.361Z,6.50
2019-05-01T21:53:46.341Z,7.87
2019-05-01T21:56:15.832Z,7.23
2019-05-01T21:58:45.747Z,7.53
2019-05-01T22:01:15.832Z,9.17
2019-05-01T22:03:45.724Z,29.70
2019-05-01T22:06:16.660Z,20.13
2019-05-01T22:08:46.865Z,10.77
2019-05-01T22:11:16.757Z,9.33
2019-05-01T22:13:46.652Z,6.90
2019-05-01T22:16:24.208Z,6.73
2019-05-01T22:19:16.386Z,6.60
2019-05-01T22:22:10.344Z,7.60
2019-05-01T22:24:54.710Z,7.67
2019-05-01T22:27:30.796Z,5.40
2019-05-01T22:30:10.932Z,5.03
2019-05-01T22:32:43.181Z,8.07
2019-05-01T22:35:22.352Z,6.67
2019-05-01T22:37:52.331Z,5.17
2019-05-01T22:40:31.335Z,5.53
2019-05-01T22:43:01.318Z,5.03
2019-05-01T22:45:31.324Z,4.73
2019-05-01T22:48:01.477Z,9.83
2019-05-01T22:50:31.325Z,5.53
2019-05-01T22:53:01.172Z,9.67
2019-05-01T22:55:31.020Z,8.10
2019-05-01T22:58:00.920Z,7.60
2019-05-01T23:00:37.904Z,7.60
2019-05-01T23:03:10.156Z,10.20
2019-05-01T23:05:40.033Z,9.67
2019-05-01T23:08:10.005Z,9.53
2019-05-01T23:10:41.890Z,8.10
2019-05-01T23:13:11.493Z,6.30
2019-05-01T23:15:41.468Z,7.50
2019-05-01T23:18:15.574Z,6.87
2019-05-01T23:20:44.230Z,12.77
2019-05-01T23:23:14.176Z,8.10
2019-05-01T23:25:44.159Z,6.00
2019-05-01T23:28:14.586Z,7.37
2019-05-01T23:30:44.992Z,8.40
2019-05-01T23:33:15.236Z,6.40
2019-05-01T23:35:45.472Z,5.73
2019-05-01T23:38:15.849Z,6.00
2019-05-01T23:40:50.880Z,10.17
2019-05-01T23:43:22.902Z,7.20
2019-05-01T23:45:50.705Z,7.73
2019-05-01T23:48:20.949Z,7.70
2019-05-01T23:50:51.251Z,6.93
2019-05-01T23:53:21.392Z,5.83
2019-05-01T23:55:54.638Z,7.33
2019-05-01T23:58:23.534Z,6.03
